sensor_id;sensor_type;location;lat;lon;timestamp;P1;durP1;ratioP1;P2;durP2;ratioP2
15486;SDS011;7845;53.698;10.078;2023-05-23T00:01:35;5.80;;;4.70;;
15486;SDS011;7845;53.698;10.078;2023-05-23T00:04:02;6.17;;;4.87;;
15486;SDS011;7845;53.698;10.078;2023-05-23T00:06:27;7.00;;;5.50;;
15486;SDS011;7845;53.698;10.078;2023-05-23T00:08:53;6.57;;;5.40;;
15486;SDS011;7845;53.698;10.078;2023-05-23T00:11:18;6.97;;;6.03;;
15486;SDS011;7845;53.698;10.078;2023-05-23T00:13:45;6.90;;;6.03;;
15486;SDS011;7845;53.698;10.078;2023-05-23T00:16:10;6.70;;;5.73;;
15486;SDS011;7845;53.698;10.078;2023-05-23T00:18:36;6.60;;;5.90;;
15486;SDS011;7845;53.698;10.078;2023-05-23T00:21:02;10.70;;;7.60;;
15486;SDS011;7845;53.698;10.078;2023-05-23T00:23:30;7.07;;;6.27;;
15486;SDS011;7845;53.698;10.078;2023-05-23T00:25:59;6.53;;;5.83;;
15486;SDS011;7845;53.698;10.078;2023-05-23T00:28:24;7.20;;;5.80;;
15486;SDS011;7845;53.698;10.078;2023-05-23T00:30:51;7.40;;;6.60;;
15486;SDS011;7845;53.698;10.078;2023-05-23T00:33:16;7.80;;;6.67;;
15486;SDS011;7845;53.698;10.078;2023-05-23T00:35:46;7.20;;;6.17;;
15486;SDS011;7845;53.698;10.078;2023-05-23T00:38:11;7.63;;;5.77;;
15486;SDS011;7845;53.698;10.078;2023-05-23T00:40:38;8.10;;;7.20;;
15486;SDS011;7845;53.698;10.078;2023-05-23T00:43:04;7.17;;;6.07;;
15486;SDS011;7845;53.698;10.078;2023-05-23T00:45:30;5.43;;;4.53;;
15486;SDS011;7845;53.698;10.078;2023-05-23T00:47:56;6.27;;;4.93;;
15486;SDS011;7845;53.698;10.078;2023-05-23T00:50:25;5.57;;;4.33;;
15486;SDS011;7845;53.698;10.078;2023-05-23T00:52:56;5.50;;;4.40;;
15486;SDS011;7845;53.698;10.078;2023-05-23T00:55:24;5.63;;;4.60;;
15486;SDS011;7845;53.698;10.078;2023-05-23T00:57:52;8.50;;;7.40;;
15486;SDS011;7845;53.698;10.078;2023-05-23T01:00:24;7.10;;;6.00;;
15486;SDS011;7845;53.698;10.078;2023-05-23T01:02:52;9.07;;;8.03;;
15486;SDS011;7845;53.698;10.078;2023-05-23T01:05:18;7.10;;;6.17;;
15486;SDS011;7845;53.698;10.078;2023-05-23T01:07:47;7.00;;;6.30;;
15486;SDS011;7845;53.698;10.078;2023-05-23T01:10:13;6.30;;;5.70;;
15486;SDS011;7845;53.698;10.078;2023-05-23T01:12:54;6.60;;;5.73;;
15486;SDS011;7845;53.698;10.078;2023-05-23T01:15:56;6.30;;;5.50;;
15486;SDS011;7845;53.698;10.078;2023-05-23T01:18:32;6.13;;;5.40;;
15486;SDS011;7845;53.698;10.078;2023-05-23T01:21:26;6.37;;;5.00;;
15486;SDS011;7845;53.698;10.078;2023-05-23T01:26:36;6.30;;;5.30;;
15486;SDS011;7845;53.698;10.078;2023-05-23T01:29:20;8.57;;;7.67;;
15486;SDS011;7845;53.698;10.078;2023-05-23T01:31:48;7.30;;;6.60;;
15486;SDS011;7845;53.698;10.078;2023-05-23T01:34:18;6.90;;;6.20;;
15486;SDS011;7845;53.698;10.078;2023-05-23T01:36:48;6.10;;;5.50;;
15486;SDS011;7845;53.698;10.078;2023-05-23T01:39:17;5.60;;;4.83;;
15486;SDS011;7845;53.698;10.078;2023-05-23T01:41:45;6.30;;;5.03;;
15486;SDS011;7845;53.698;10.078;2023-05-23T01:44:10;7.17;;;6.47;;
15486;SDS011;7845;53.698;10.078;2023-05-23T01:46:37;6.63;;;5.93;;
15486;SDS011;7845;53.698;10.078;2023-05-23T01:49:05;7.13;;;5.20;;
15486;SDS011;7845;53.698;10.078;2023-05-23T01:51:34;5.87;;;5.10;;
15486;SDS011;7845;53.698;10.078;2023-05-23T01:54:04;5.60;;;4.63;;
15486;SDS011;7845;53.698;10.078;2023-05-23T01:56:35;5.70;;;4.57;;
15486;SDS011;7845;53.698;10.078;2023-05-23T01:59:04;5.80;;;4.33;;
15486;SDS011;7845;53.698;10.078;2023-05-23T02:01:29;5.30;;;4.23;;
15486;SDS011;7845;53.698;10.078;2023-05-23T02:03:55;5.33;;;4.27;;
15486;SDS011;7845;53.698;10.078;2023-05-23T02:06:20;5.40;;;4.10;;
15486;SDS011;7845;53.698;10.078;2023-05-23T02:08:46;5.20;;;4.30;;
15486;SDS011;7845;53.698;10.078;2023-05-23T02:11:11;5.53;;;3.97;;
15486;SDS011;7845;53.698;10.078;2023-05-23T02:13:36;5.00;;;4.07;;
15486;SDS011;7845;53.698;10.078;2023-05-23T02:16:02;4.87;;;3.60;;
15486;SDS011;7845;53.698;10.078;2023-05-23T02:18:28;5.03;;;3.83;;
15486;SDS011;7845;53.698;10.078;2023-05-23T02:20:54;5.87;;;3.83;;
15486;SDS011;7845;53.698;10.078;2023-05-23T02:23:20;5.23;;;3.97;;
15486;SDS011;7845;53.698;10.078;2023-05-23T02:25:46;5.27;;;4.20;;
15486;SDS011;7845;53.698;10.078;2023-05-23T02:28:12;5.47;;;4.50;;
15486;SDS011;7845;53.698;10.078;2023-05-23T02:30:38;5.97;;;4.57;;
15486;SDS011;7845;53.698;10.078;2023-05-23T02:33:04;5.33;;;4.20;;
15486;SDS011;7845;53.698;10.078;2023-05-23T02:35:30;8.13;;;7.30;;
15486;SDS011;7845;53.698;10.078;2023-05-23T02:37:56;7.60;;;6.50;;
15486;SDS011;7845;53.698;10.078;2023-05-23T02:40:21;9.40;;;8.27;;
15486;SDS011;7845;53.698;10.078;2023-05-23T02:42:48;10.30;;;9.20;;
15486;SDS011;7845;53.698;10.078;2023-05-23T02:45:15;9.83;;;8.83;;
15486;SDS011;7845;53.698;10.078;2023-05-23T02:47:40;12.27;;;10.97;;
15486;SDS011;7845;53.698;10.078;2023-05-23T02:50:06;19.17;;;16.90;;
15486;SDS011;7845;53.698;10.078;2023-05-23T02:52:31;14.23;;;12.73;;
15486;SDS011;7845;53.698;10.078;2023-05-23T02:54:57;16.07;;;14.13;;
15486;SDS011;7845;53.698;10.078;2023-05-23T02:57:22;14.20;;;12.40;;
15486;SDS011;7845;53.698;10.078;2023-05-23T02:59:48;10.60;;;9.50;;
15486;SDS011;7845;53.698;10.078;2023-05-23T03:02:14;12.40;;;10.90;;
15486;SDS011;7845;53.698;10.078;2023-05-23T03:04:40;14.60;;;12.67;;
15486;SDS011;7845;53.698;10.078;2023-05-23T03:07:06;16.33;;;14.63;;
15486;SDS011;7845;53.698;10.078;2023-05-23T03:09:32;14.70;;;12.30;;
15486;SDS011;7845;53.698;10.078;2023-05-23T03:11:58;14.10;;;12.60;;
15486;SDS011;7845;53.698;10.078;2023-05-23T03:14:25;18.97;;;16.90;;
15486;SDS011;7845;53.698;10.078;2023-05-23T03:16:51;14.70;;;13.00;;
15486;SDS011;7845;53.698;10.078;2023-05-23T03:19:16;18.37;;;14.20;;
15486;SDS011;7845;53.698;10.078;2023-05-23T03:21:43;21.17;;;17.97;;
15486;SDS011;7845;53.698;10.078;2023-05-23T03:24:08;22.70;;;18.67;;
15486;SDS011;7845;53.698;10.078;2023-05-23T03:26:33;21.30;;;15.03;;
15486;SDS011;7845;53.698;10.078;2023-05-23T03:28:59;14.83;;;12.17;;
15486;SDS011;7845;53.698;10.078;2023-05-23T03:31:24;18.17;;;15.57;;
15486;SDS011;7845;53.698;10.078;2023-05-23T03:33:52;17.67;;;14.07;;
15486;SDS011;7845;53.698;10.078;2023-05-23T03:36:17;14.57;;;12.53;;
15486;SDS011;7845;53.698;10.078;2023-05-23T03:38:45;17.53;;;15.47;;
15486;SDS011;7845;53.698;10.078;2023-05-23T03:41:11;18.07;;;14.10;;
15486;SDS011;7845;53.698;10.078;2023-05-23T03:43:36;19.53;;;15.33;;
15486;SDS011;7845;53.698;10.078;2023-05-23T03:46:01;14.90;;;13.30;;
15486;SDS011;7845;53.698;10.078;2023-05-23T03:48:27;21.03;;;15.10;;
15486;SDS011;7845;53.698;10.078;2023-05-23T03:50:54;15.10;;;11.63;;
15486;SDS011;7845;53.698;10.078;2023-05-23T03:53:21;18.23;;;14.47;;
15486;SDS011;7845;53.698;10.078;2023-05-23T03:55:46;12.60;;;10.27;;
15486;SDS011;7845;53.698;10.078;2023-05-23T03:58:13;14.30;;;11.67;;
15486;SDS011;7845;53.698;10.078;2023-05-23T04:00:39;13.73;;;11.50;;
15486;SDS011;7845;53.698;10.078;2023-05-23T04:03:05;18.23;;;14.10;;
15486;SDS011;7845;53.698;10.078;2023-05-23T04:05:30;16.47;;;12.67;;
15486;SDS011;7845;53.698;10.078;2023-05-23T04:07:56;12.97;;;11.00;;
15486;SDS011;7845;53.698;10.078;2023-05-23T04:10:25;16.33;;;11.27;;
15486;SDS011;7845;53.698;10.078;2023-05-23T04:12:50;12.77;;;10.30;;
15486;SDS011;7845;53.698;10.078;2023-05-23T04:15:15;10.47;;;8.70;;
15486;SDS011;7845;53.698;10.078;2023-05-23T04:17:41;14.50;;;10.77;;
15486;SDS011;7845;53.698;10.078;2023-05-23T04:20:07;16.00;;;10.97;;
15486;SDS011;7845;53.698;10.078;2023-05-23T04:22:35;16.33;;;12.43;;
15486;SDS011;7845;53.698;10.078;2023-05-23T04:25:02;18.83;;;14.13;;
15486;SDS011;7845;53.698;10.078;2023-05-23T04:27:27;18.30;;;13.13;;
15486;SDS011;7845;53.698;10.078;2023-05-23T04:29:53;21.70;;;15.50;;
15486;SDS011;7845;53.698;10.078;2023-05-23T04:32:20;19.00;;;14.83;;
15486;SDS011;7845;53.698;10.078;2023-05-23T04:34:47;20.97;;;14.83;;
15486;SDS011;7845;53.698;10.078;2023-05-23T04:37:12;22.47;;;17.20;;
15486;SDS011;7845;53.698;10.078;2023-05-23T04:39:39;21.27;;;17.40;;
15486;SDS011;7845;53.698;10.078;2023-05-23T04:42:04;22.30;;;16.47;;
15486;SDS011;7845;53.698;10.078;2023-05-23T04:44:31;20.47;;;14.37;;
15486;SDS011;7845;53.698;10.078;2023-05-23T04:46:57;14.60;;;12.67;;
15486;SDS011;7845;53.698;10.078;2023-05-23T04:49:23;16.40;;;13.07;;
15486;SDS011;7845;53.698;10.078;2023-05-23T04:51:49;16.13;;;12.83;;
15486;SDS011;7845;53.698;10.078;2023-05-23T04:54:17;17.77;;;13.10;;
15486;SDS011;7845;53.698;10.078;2023-05-23T04:56:44;17.00;;;13.27;;
15486;SDS011;7845;53.698;10.078;2023-05-23T04:59:09;13.50;;;10.37;;
15486;SDS011;7845;53.698;10.078;2023-05-23T05:01:35;12.87;;;9.67;;
15486;SDS011;7845;53.698;10.078;2023-05-23T05:04:04;18.13;;;12.73;;
15486;SDS011;7845;53.698;10.078;2023-05-23T05:06:31;14.47;;;11.00;;
15486;SDS011;7845;53.698;10.078;2023-05-23T05:08:57;15.20;;;10.40;;
15486;SDS011;7845;53.698;10.078;2023-05-23T05:11:23;12.70;;;9.73;;
15486;SDS011;7845;53.698;10.078;2023-05-23T05:13:48;14.80;;;10.73;;
15486;SDS011;7845;53.698;10.078;2023-05-23T05:16:14;12.80;;;8.97;;
15486;SDS011;7845;53.698;10.078;2023-05-23T05:18:40;19.57;;;13.43;;
15486;SDS011;7845;53.698;10.078;2023-05-23T05:21:06;16.30;;;13.63;;
15486;SDS011;7845;53.698;10.078;2023-05-23T05:23:32;18.73;;;13.67;;
15486;SDS011;7845;53.698;10.078;2023-05-23T05:25:57;18.30;;;11.80;;
15486;SDS011;7845;53.698;10.078;2023-05-23T05:28:23;20.30;;;15.80;;
15486;SDS011;7845;53.698;10.078;2023-05-23T05:30:48;20.43;;;15.07;;
15486;SDS011;7845;53.698;10.078;2023-05-23T05:33:18;18.27;;;14.20;;
15486;SDS011;7845;53.698;10.078;2023-05-23T05:35:44;20.80;;;14.33;;
15486;SDS011;7845;53.698;10.078;2023-05-23T05:38:11;23.23;;;16.40;;
15486;SDS011;7845;53.698;10.078;2023-05-23T05:40:36;20.30;;;15.37;;
15486;SDS011;7845;53.698;10.078;2023-05-23T05:43:03;20.53;;;14.73;;
15486;SDS011;7845;53.698;10.078;2023-05-23T05:45:28;20.63;;;15.47;;
15486;SDS011;7845;53.698;10.078;2023-05-23T05:47:54;27.77;;;17.30;;
15486;SDS011;7845;53.698;10.078;2023-05-23T05:50:20;19.53;;;14.10;;
15486;SDS011;7845;53.698;10.078;2023-05-23T05:52:45;20.20;;;14.60;;
15486;SDS011;7845;53.698;10.078;2023-05-23T05:55:12;20.00;;;14.60;;
15486;SDS011;7845;53.698;10.078;2023-05-23T05:57:38;19.13;;;13.30;;
15486;SDS011;7845;53.698;10.078;2023-05-23T06:00:11;20.50;;;15.67;;
15486;SDS011;7845;53.698;10.078;2023-05-23T06:02:43;16.90;;;12.80;;
15486;SDS011;7845;53.698;10.078;2023-05-23T06:05:14;26.33;;;16.70;;
15486;SDS011;7845;53.698;10.078;2023-05-23T06:07:43;29.40;;;18.40;;
15486;SDS011;7845;53.698;10.078;2023-05-23T06:10:09;19.90;;;14.57;;
15486;SDS011;7845;53.698;10.078;2023-05-23T06:12:38;24.47;;;17.70;;
15486;SDS011;7845;53.698;10.078;2023-05-23T06:15:04;24.43;;;16.17;;
15486;SDS011;7845;53.698;10.078;2023-05-23T06:17:30;21.43;;;14.47;;
15486;SDS011;7845;53.698;10.078;2023-05-23T06:19:56;18.77;;;13.20;;
15486;SDS011;7845;53.698;10.078;2023-05-23T06:22:21;21.80;;;13.50;;
15486;SDS011;7845;53.698;10.078;2023-05-23T06:24:47;22.60;;;15.30;;
15486;SDS011;7845;53.698;10.078;2023-05-23T06:27:12;17.60;;;13.30;;
15486;SDS011;7845;53.698;10.078;2023-05-23T06:29:37;27.20;;;17.93;;
15486;SDS011;7845;53.698;10.078;2023-05-23T06:32:03;24.63;;;18.37;;
15486;SDS011;7845;53.698;10.078;2023-05-23T06:34:29;16.90;;;11.93;;
15486;SDS011;7845;53.698;10.078;2023-05-23T06:36:54;29.67;;;19.53;;
15486;SDS011;7845;53.698;10.078;2023-05-23T06:39:25;24.93;;;15.57;;
15486;SDS011;7845;53.698;10.078;2023-05-23T06:41:50;21.63;;;15.07;;
15486;SDS011;7845;53.698;10.078;2023-05-23T06:44:16;16.37;;;11.93;;
15486;SDS011;7845;53.698;10.078;2023-05-23T06:46:42;29.10;;;21.97;;
15486;SDS011;7845;53.698;10.078;2023-05-23T06:49:09;21.50;;;17.93;;
15486;SDS011;7845;53.698;10.078;2023-05-23T06:51:34;20.97;;;15.03;;
15486;SDS011;7845;53.698;10.078;2023-05-23T06:54:00;22.23;;;17.10;;
15486;SDS011;7845;53.698;10.078;2023-05-23T06:56:25;17.30;;;13.47;;
15486;SDS011;7845;53.698;10.078;2023-05-23T06:58:51;16.90;;;12.90;;
15486;SDS011;7845;53.698;10.078;2023-05-23T07:01:17;15.37;;;13.00;;
15486;SDS011;7845;53.698;10.078;2023-05-23T07:03:44;16.13;;;13.57;;
15486;SDS011;7845;53.698;10.078;2023-05-23T07:06:10;12.97;;;11.57;;
15486;SDS011;7845;53.698;10.078;2023-05-23T07:08:36;15.03;;;12.10;;
15486;SDS011;7845;53.698;10.078;2023-05-23T07:11:04;12.63;;;9.83;;
15486;SDS011;7845;53.698;10.078;2023-05-23T07:13:30;12.00;;;10.73;;
15486;SDS011;7845;53.698;10.078;2023-05-23T07:15:57;12.13;;;9.23;;
15486;SDS011;7845;53.698;10.078;2023-05-23T07:18:23;9.97;;;8.47;;
15486;SDS011;7845;53.698;10.078;2023-05-23T07:20:48;9.97;;;8.40;;
15486;SDS011;7845;53.698;10.078;2023-05-23T07:23:14;10.23;;;8.43;;
15486;SDS011;7845;53.698;10.078;2023-05-23T07:25:39;10.63;;;9.20;;
15486;SDS011;7845;53.698;10.078;2023-05-23T07:28:08;11.33;;;8.00;;
15486;SDS011;7845;53.698;10.078;2023-05-23T07:30:33;11.43;;;10.23;;
15486;SDS011;7845;53.698;10.078;2023-05-23T07:32:59;9.43;;;7.70;;
15486;SDS011;7845;53.698;10.078;2023-05-23T07:35:25;8.00;;;7.03;;
15486;SDS011;7845;53.698;10.078;2023-05-23T07:37:51;8.93;;;7.47;;
15486;SDS011;7845;53.698;10.078;2023-05-23T07:40:17;9.53;;;8.10;;
15486;SDS011;7845;53.698;10.078;2023-05-23T07:42:42;9.67;;;7.37;;
15486;SDS011;7845;53.698;10.078;2023-05-23T07:45:08;7.90;;;6.30;;
15486;SDS011;7845;53.698;10.078;2023-05-23T07:47:35;8.80;;;5.90;;
15486;SDS011;7845;53.698;10.078;2023-05-23T07:50:00;7.37;;;5.80;;
15486;SDS011;7845;53.698;10.078;2023-05-23T07:52:28;6.37;;;4.90;;
15486;SDS011;7845;53.698;10.078;2023-05-23T07:54:57;8.00;;;6.17;;
15486;SDS011;7845;53.698;10.078;2023-05-23T07:57:22;7.93;;;5.80;;
15486;SDS011;7845;53.698;10.078;2023-05-23T07:59:51;7.60;;;5.77;;
15486;SDS011;7845;53.698;10.078;2023-05-23T08:02:17;9.23;;;6.77;;
15486;SDS011;7845;53.698;10.078;2023-05-23T08:04:42;8.13;;;5.77;;
15486;SDS011;7845;53.698;10.078;2023-05-23T08:07:09;8.87;;;6.10;;
15486;SDS011;7845;53.698;10.078;2023-05-23T08:09:35;7.60;;;5.30;;
15486;SDS011;7845;53.698;10.078;2023-05-23T08:12:03;7.37;;;5.50;;
15486;SDS011;7845;53.698;10.078;2023-05-23T08:14:28;8.50;;;6.13;;
15486;SDS011;7845;53.698;10.078;2023-05-23T08:16:54;6.70;;;4.97;;
15486;SDS011;7845;53.698;10.078;2023-05-23T08:19:21;8.57;;;5.70;;
15486;SDS011;7845;53.698;10.078;2023-05-23T08:21:48;9.73;;;5.47;;
15486;SDS011;7845;53.698;10.078;2023-05-23T08:24:13;7.17;;;4.80;;
15486;SDS011;7845;53.698;10.078;2023-05-23T08:26:39;8.00;;;5.60;;
15486;SDS011;7845;53.698;10.078;2023-05-23T08:29:06;7.67;;;6.23;;
15486;SDS011;7845;53.698;10.078;2023-05-23T08:31:32;6.50;;;4.87;;
15486;SDS011;7845;53.698;10.078;2023-05-23T08:33:58;6.50;;;4.43;;
15486;SDS011;7845;53.698;10.078;2023-05-23T08:36:23;7.57;;;5.30;;
15486;SDS011;7845;53.698;10.078;2023-05-23T08:38:49;7.47;;;5.00;;
15486;SDS011;7845;53.698;10.078;2023-05-23T08:41:17;8.30;;;4.97;;
15486;SDS011;7845;53.698;10.078;2023-05-23T08:43:45;6.50;;;4.20;;
15486;SDS011;7845;53.698;10.078;2023-05-23T08:46:12;5.90;;;4.10;;
15486;SDS011;7845;53.698;10.078;2023-05-23T08:48:38;5.27;;;3.63;;
15486;SDS011;7845;53.698;10.078;2023-05-23T08:51:08;8.20;;;4.20;;
15486;SDS011;7845;53.698;10.078;2023-05-23T08:53:36;5.53;;;3.73;;
15486;SDS011;7845;53.698;10.078;2023-05-23T08:56:05;5.70;;;3.77;;
15486;SDS011;7845;53.698;10.078;2023-05-23T08:58:31;6.00;;;4.13;;
15486;SDS011;7845;53.698;10.078;2023-05-23T09:00:59;6.00;;;3.70;;
15486;SDS011;7845;53.698;10.078;2023-05-23T09:03:26;5.63;;;4.17;;
15486;SDS011;7845;53.698;10.078;2023-05-23T09:05:54;5.70;;;3.60;;
15486;SDS011;7845;53.698;10.078;2023-05-23T09:08:21;7.00;;;4.30;;
15486;SDS011;7845;53.698;10.078;2023-05-23T09:10:48;6.00;;;4.00;;
15486;SDS011;7845;53.698;10.078;2023-05-23T09:13:14;7.00;;;4.43;;
15486;SDS011;7845;53.698;10.078;2023-05-23T09:18:37;7.43;;;4.20;;
15486;SDS011;7845;53.698;10.078;2023-05-23T09:21:03;5.43;;;3.50;;
15486;SDS011;7845;53.698;10.078;2023-05-23T09:23:33;7.63;;;4.93;;
15486;SDS011;7845;53.698;10.078;2023-05-23T09:26:00;7.13;;;5.40;;
15486;SDS011;7845;53.698;10.078;2023-05-23T09:28:27;12.00;;;7.00;;
15486;SDS011;7845;53.698;10.078;2023-05-23T09:30:59;7.70;;;5.53;;
15486;SDS011;7845;53.698;10.078;2023-05-23T09:34:08;8.73;;;5.73;;
15486;SDS011;7845;53.698;10.078;2023-05-23T09:36:14;8.80;;;5.83;;
15486;SDS011;7845;53.698;10.078;2023-05-23T09:38:41;8.23;;;5.00;;
15486;SDS011;7845;53.698;10.078;2023-05-23T09:41:08;6.83;;;4.93;;
15486;SDS011;7845;53.698;10.078;2023-05-23T09:43:39;7.00;;;4.50;;
15486;SDS011;7845;53.698;10.078;2023-05-23T09:46:13;7.03;;;4.33;;
15486;SDS011;7845;53.698;10.078;2023-05-23T09:48:45;8.73;;;4.67;;
15486;SDS011;7845;53.698;10.078;2023-05-23T09:51:17;7.17;;;3.83;;
15486;SDS011;7845;53.698;10.078;2023-05-23T09:53:48;5.90;;;2.93;;
15486;SDS011;7845;53.698;10.078;2023-05-23T09:56:17;5.60;;;3.27;;
15486;SDS011;7845;53.698;10.078;2023-05-23T09:58:45;6.03;;;3.23;;
15486;SDS011;7845;53.698;10.078;2023-05-23T10:01:11;5.60;;;3.03;;
15486;SDS011;7845;53.698;10.078;2023-05-23T10:03:39;6.03;;;3.67;;
15486;SDS011;7845;53.698;10.078;2023-05-23T10:06:09;6.07;;;2.70;;
15486;SDS011;7845;53.698;10.078;2023-05-23T10:08:42;5.60;;;3.00;;
15486;SDS011;7845;53.698;10.078;2023-05-23T10:11:29;5.80;;;3.50;;
15486;SDS011;7845;53.698;10.078;2023-05-23T10:13:58;6.53;;;3.10;;
15486;SDS011;7845;53.698;10.078;2023-05-23T10:19:24;7.07;;;3.40;;
15486;SDS011;7845;53.698;10.078;2023-05-23T10:22:06;4.83;;;2.90;;
15486;SDS011;7845;53.698;10.078;2023-05-23T10:24:34;6.73;;;3.67;;
15486;SDS011;7845;53.698;10.078;2023-05-23T10:27:01;8.07;;;3.80;;
15486;SDS011;7845;53.698;10.078;2023-05-23T10:29:27;4.67;;;2.90;;
15486;SDS011;7845;53.698;10.078;2023-05-23T10:31:53;6.20;;;3.30;;
15486;SDS011;7845;53.698;10.078;2023-05-23T10:34:30;8.00;;;3.23;;
15486;SDS011;7845;53.698;10.078;2023-05-23T10:37:05;9.60;;;3.60;;
15486;SDS011;7845;53.698;10.078;2023-05-23T10:42:22;7.10;;;2.87;;
15486;SDS011;7845;53.698;10.078;2023-05-23T10:48:30;5.60;;;3.13;;
15486;SDS011;7845;53.698;10.078;2023-05-23T10:51:08;5.50;;;2.60;;
15486;SDS011;7845;53.698;10.078;2023-05-23T10:53:42;12.90;;;5.20;;
15486;SDS011;7845;53.698;10.078;2023-05-23T10:56:09;7.27;;;3.50;;
15486;SDS011;7845;53.698;10.078;2023-05-23T10:58:43;7.40;;;2.73;;
15486;SDS011;7845;53.698;10.078;2023-05-23T11:01:14;5.20;;;2.97;;
15486;SDS011;7845;53.698;10.078;2023-05-23T11:03:50;6.27;;;3.10;;
15486;SDS011;7845;53.698;10.078;2023-05-23T11:09:13;9.50;;;3.37;;
15486;SDS011;7845;53.698;10.078;2023-05-23T11:14:19;5.73;;;2.93;;
15486;SDS011;7845;53.698;10.078;2023-05-23T11:17:17;6.33;;;2.80;;
15486;SDS011;7845;53.698;10.078;2023-05-23T11:22:32;5.80;;;3.33;;
15486;SDS011;7845;53.698;10.078;2023-05-23T11:24:58;7.33;;;3.20;;
15486;SDS011;7845;53.698;10.078;2023-05-23T11:30:16;5.23;;;2.87;;
15486;SDS011;7845;53.698;10.078;2023-05-23T11:32:46;6.50;;;2.73;;
15486;SDS011;7845;53.698;10.078;2023-05-23T11:35:16;5.97;;;3.20;;
15486;SDS011;7845;53.698;10.078;2023-05-23T11:37:42;6.70;;;2.90;;
15486;SDS011;7845;53.698;10.078;2023-05-23T11:42:56;7.27;;;2.90;;
15486;SDS011;7845;53.698;10.078;2023-05-23T11:45:22;6.33;;;2.47;;
15486;SDS011;7845;53.698;10.078;2023-05-23T11:47:48;6.90;;;3.40;;
15486;SDS011;7845;53.698;10.078;2023-05-23T11:50:16;4.70;;;2.63;;
15486;SDS011;7845;53.698;10.078;2023-05-23T11:52:44;8.03;;;2.63;;
15486;SDS011;7845;53.698;10.078;2023-05-23T11:55:15;6.27;;;2.87;;
15486;SDS011;7845;53.698;10.078;2023-05-23T11:57:41;6.20;;;2.97;;
15486;SDS011;7845;53.698;10.078;2023-05-23T12:00:06;6.67;;;2.73;;
15486;SDS011;7845;53.698;10.078;2023-05-23T12:02:37;6.03;;;3.10;;
15486;SDS011;7845;53.698;10.078;2023-05-23T12:05:10;6.37;;;2.57;;
15486;SDS011;7845;53.698;10.078;2023-05-23T12:07:43;7.00;;;2.90;;
15486;SDS011;7845;53.698;10.078;2023-05-23T12:10:15;5.97;;;2.83;;
15486;SDS011;7845;53.698;10.078;2023-05-23T12:12:42;4.97;;;2.40;;
15486;SDS011;7845;53.698;10.078;2023-05-23T12:15:09;6.90;;;3.17;;
15486;SDS011;7845;53.698;10.078;2023-05-23T12:17:38;7.43;;;3.40;;
15486;SDS011;7845;53.698;10.078;2023-05-23T12:20:10;10.47;;;3.20;;
15486;SDS011;7845;53.698;10.078;2023-05-23T12:22:36;9.30;;;3.80;;
15486;SDS011;7845;53.698;10.078;2023-05-23T12:25:01;10.27;;;3.53;;
15486;SDS011;7845;53.698;10.078;2023-05-23T12:27:29;6.33;;;2.80;;
15486;SDS011;7845;53.698;10.078;2023-05-23T12:30:06;5.80;;;2.97;;
15486;SDS011;7845;53.698;10.078;2023-05-23T12:32:40;9.57;;;2.60;;
15486;SDS011;7845;53.698;10.078;2023-05-23T12:35:07;6.77;;;2.97;;
15486;SDS011;7845;53.698;10.078;2023-05-23T12:37:33;8.37;;;3.13;;
15486;SDS011;7845;53.698;10.078;2023-05-23T12:40:08;7.70;;;3.30;;
15486;SDS011;7845;53.698;10.078;2023-05-23T12:42:48;7.47;;;3.43;;
15486;SDS011;7845;53.698;10.078;2023-05-23T12:45:15;8.57;;;2.60;;
15486;SDS011;7845;53.698;10.078;2023-05-23T12:47:40;9.70;;;3.73;;
15486;SDS011;7845;53.698;10.078;2023-05-23T12:50:06;8.60;;;3.13;;
15486;SDS011;7845;53.698;10.078;2023-05-23T12:52:32;9.47;;;4.00;;
15486;SDS011;7845;53.698;10.078;2023-05-23T12:54:57;7.20;;;3.77;;
15486;SDS011;7845;53.698;10.078;2023-05-23T12:57:23;8.10;;;3.40;;
15486;SDS011;7845;53.698;10.078;2023-05-23T12:59:48;6.70;;;2.83;;
15486;SDS011;7845;53.698;10.078;2023-05-23T13:02:13;9.77;;;2.80;;
15486;SDS011;7845;53.698;10.078;2023-05-23T13:04:39;8.17;;;4.00;;
15486;SDS011;7845;53.698;10.078;2023-05-23T13:07:05;9.07;;;4.20;;
15486;SDS011;7845;53.698;10.078;2023-05-23T13:09:30;7.63;;;3.40;;
15486;SDS011;7845;53.698;10.078;2023-05-23T13:11:56;9.23;;;3.30;;
15486;SDS011;7845;53.698;10.078;2023-05-23T13:14:22;6.93;;;2.30;;
15486;SDS011;7845;53.698;10.078;2023-05-23T13:16:48;7.30;;;3.20;;
15486;SDS011;7845;53.698;10.078;2023-05-23T13:19:13;9.57;;;3.73;;
15486;SDS011;7845;53.698;10.078;2023-05-23T13:21:38;9.93;;;3.47;;
15486;SDS011;7845;53.698;10.078;2023-05-23T13:24:04;6.23;;;2.93;;
15486;SDS011;7845;53.698;10.078;2023-05-23T13:26:30;10.03;;;3.97;;
15486;SDS011;7845;53.698;10.078;2023-05-23T13:28:56;6.90;;;3.33;;
15486;SDS011;7845;53.698;10.078;2023-05-23T13:31:22;8.43;;;3.63;;
15486;SDS011;7845;53.698;10.078;2023-05-23T13:33:47;8.80;;;2.83;;
15486;SDS011;7845;53.698;10.078;2023-05-23T13:36:13;6.70;;;3.33;;
15486;SDS011;7845;53.698;10.078;2023-05-23T13:38:38;12.37;;;3.57;;
15486;SDS011;7845;53.698;10.078;2023-05-23T13:41:04;8.60;;;3.50;;
15486;SDS011;7845;53.698;10.078;2023-05-23T13:43:29;6.30;;;2.90;;
15486;SDS011;7845;53.698;10.078;2023-05-23T13:45:55;5.57;;;2.80;;
15486;SDS011;7845;53.698;10.078;2023-05-23T13:48:20;6.60;;;3.47;;
15486;SDS011;7845;53.698;10.078;2023-05-23T13:50:45;7.60;;;3.97;;
15486;SDS011;7845;53.698;10.078;2023-05-23T13:53:10;7.47;;;3.07;;
15486;SDS011;7845;53.698;10.078;2023-05-23T13:55:40;9.37;;;3.40;;
15486;SDS011;7845;53.698;10.078;2023-05-23T13:58:06;6.50;;;2.80;;
15486;SDS011;7845;53.698;10.078;2023-05-23T14:00:32;8.30;;;3.63;;
15486;SDS011;7845;53.698;10.078;2023-05-23T14:02:58;11.37;;;4.40;;
15486;SDS011;7845;53.698;10.078;2023-05-23T14:05:24;8.83;;;3.20;;
15486;SDS011;7845;53.698;10.078;2023-05-23T14:07:49;10.50;;;3.00;;
15486;SDS011;7845;53.698;10.078;2023-05-23T14:10:14;8.30;;;2.70;;
15486;SDS011;7845;53.698;10.078;2023-05-23T14:12:41;7.97;;;3.10;;
15486;SDS011;7845;53.698;10.078;2023-05-23T14:15:07;8.57;;;3.27;;
15486;SDS011;7845;53.698;10.078;2023-05-23T14:17:33;8.90;;;3.83;;
15486;SDS011;7845;53.698;10.078;2023-05-23T14:19:58;9.03;;;3.20;;
15486;SDS011;7845;53.698;10.078;2023-05-23T14:22:24;6.13;;;2.60;;
15486;SDS011;7845;53.698;10.078;2023-05-23T14:24:49;8.77;;;2.73;;
15486;SDS011;7845;53.698;10.078;2023-05-23T14:27:14;7.47;;;2.97;;
15486;SDS011;7845;53.698;10.078;2023-05-23T14:29:43;7.20;;;2.70;;
15486;SDS011;7845;53.698;10.078;2023-05-23T14:32:10;9.97;;;2.70;;
15486;SDS011;7845;53.698;10.078;2023-05-23T14:34:36;9.00;;;2.67;;
15486;SDS011;7845;53.698;10.078;2023-05-23T14:37:03;5.70;;;2.23;;
15486;SDS011;7845;53.698;10.078;2023-05-23T14:39:28;7.83;;;2.30;;
15486;SDS011;7845;53.698;10.078;2023-05-23T14:41:55;9.37;;;2.97;;
15486;SDS011;7845;53.698;10.078;2023-05-23T14:44:21;6.53;;;2.87;;
15486;SDS011;7845;53.698;10.078;2023-05-23T14:46:46;8.63;;;3.17;;
15486;SDS011;7845;53.698;10.078;2023-05-23T14:49:14;11.50;;;2.80;;
15486;SDS011;7845;53.698;10.078;2023-05-23T14:51:42;8.53;;;2.57;;
15486;SDS011;7845;53.698;10.078;2023-05-23T14:54:07;6.73;;;2.40;;
15486;SDS011;7845;53.698;10.078;2023-05-23T14:56:33;6.67;;;2.77;;
15486;SDS011;7845;53.698;10.078;2023-05-23T14:59:00;6.43;;;2.90;;
15486;SDS011;7845;53.698;10.078;2023-05-23T15:01:27;5.33;;;2.70;;
15486;SDS011;7845;53.698;10.078;2023-05-23T15:03:52;5.80;;;2.80;;
15486;SDS011;7845;53.698;10.078;2023-05-23T15:06:18;9.20;;;3.10;;
15486;SDS011;7845;53.698;10.078;2023-05-23T15:08:43;11.97;;;3.33;;